This is the latest recevied weather packets stored in our database for station/object N5XJB. If no packets are shown the sender has not sent any weather packets the latest 10 day(s).
| Time | Temp. | Humidity | Pressure | Rain* | Wind** | Luminosity | Snow |
|---|---|---|---|---|---|---|---|
| 1788563593 | 31.67° C | 70% | 1013.1 hPa | 0 mm | - | 52 W/m² | - |
| 1788563289 | 31.11° C | 68% | 1013.1 hPa | 0 mm | - | 57 W/m² | - |
| 1788562987 | 31.11° C | 67% | 1013.1 hPa | 0 mm | - | 66 W/m² | - |
| 1788562682 | 32.22° C | 66% | 1012.7 hPa | 0 mm | - | 134 W/m² | - |
| 1788562375 | 32.78° C | 64% | 1013.1 hPa | 0 mm | - | 197 W/m² | - |
| 1788562075 | 32.22° C | 62% | 1013.1 hPa | 0 mm | - | 250 W/m² | - |
| 1788561770 | 32.78° C | 62% | 1013.1 hPa | 0 mm | - | 280 W/m² | - |
| 1788561469 | 32.22° C | 62% | 1013.1 hPa | 0 mm | - | 293 W/m² | - |
| 1788561164 | 32.22° C | 62% | 1013.1 hPa | 0 mm | - | 326 W/m² | - |
| 1788560860 | 32.78° C | 63% | 1013.1 hPa | 0 mm | - | 344 W/m² | - |
| 1788560550 | 32.22° C | 62% | 1013.4 hPa | 0 mm | - | 363 W/m² | - |
| 1788560263 | 32.22° C | 63% | 1013.1 hPa | 0 mm | - | 364 W/m² | - |
| 1788559945 | 32.22° C | 66% | 1013.4 hPa | 0 mm | - | 121 W/m² | - |
| 1788559645 | 32.78° C | 60% | 1013.1 hPa | 0 mm | - | 365 W/m² | - |
| 1788559340 | 34.44° C | 59% | 1013.4 hPa | 0 mm | - | 549 W/m² | - |
| 1788559040 | 33.89° C | 55% | 1013.4 hPa | 0 mm | - | 589 W/m² | - |
| 1788558736 | 33.89° C | 56% | 1013.4 hPa | 0 mm | - | 620 W/m² | - |
| 1788558442 | 33.89° C | 55% | 1013.4 hPa | 0 mm | - | 571 W/m² | - |
| 1788558126 | 33.33° C | 58% | 1013.1 hPa | 0 mm | - | 645 W/m² | - |
| 1788557824 | 32.78° C | 57% | 1013.1 hPa | 0 mm | - | 595 W/m² | - |
| 1788557521 | 33.33° C | 56% | 1013.1 hPa | 0 mm | - | 615 W/m² | - |
| 1788557221 | 32.78° C | 59% | 1013.1 hPa | 0 mm | - | 653 W/m² | - |
| 1788556916 | 32.78° C | 59% | 1013.7 hPa | 0 mm | - | 479 W/m² | - |
| 1788556627 | 32.22° C | 62% | 1013.4 hPa | 0 mm | - | 411 W/m² | - |
| 1788556311 | 32.78° C | 62% | 1013.4 hPa | 0 mm | - | 412 W/m² | - |
* Rain latest hour (hover to see other rain measurements)
** Current wind speed in m/s (hover to see current wind gust speed)